WXM80 ListenWXM80 Stop

You find our weather info also at:

UK Metoffice

WeatherCloud

Weather Underground

Northeastern Weather Network

AWEKAS

Citizen Weather Observer Program (CWOP)

HAMweather, WeatherForYou, PWS Weather


Weather Underground History page Text

Daily Summary for March 14, 2017 Units:  English    Metric   Both
« Previous Day
Next Day »
Daily Weekly Monthly Yearly Custom
  High: Low: Average:
Temperature: 35.1 °F 23.9 °F 31.1 °F
Dew Point: 34.6 °F 17.1 °F 28.8 °F
Humidity: 98 % 74 % 91 %
Wind Speed: 28.0 mph 2.5 mph 13.1 mph
Wind Gust: 39.1 mph - -
Wind:- - SSE
Pressure: 30.25 in 28.98 in -
Precipitation: 0.00 in    
Historical Graphs
 
 
Tabular Data for March 14, 2017
Time Temperature Dew Point Pressure Wind Wind Speed Wind Gust Humidity Rainfall Rate (Hourly)
00:00 30.3 °F 23.0 °F 30.25 in East 3.8 mph 5.8 mph 74 % 0.00 in
00:05 30.4 °F 23.4 °F 30.25 in East 7.2 mph 9.0 mph 75 % 0.00 in
00:10 30.4 °F 23.1 °F 30.24 in East 6.0 mph 10.4 mph 74 % 0.00 in
00:15 30.4 °F 23.4 °F 30.24 in East 6.8 mph 9.2 mph 75 % 0.00 in
00:20 30.5 °F 23.5 °F 30.22 in East 8.2 mph 10.4 mph 75 % 0.00 in
00:25 30.6 °F 23.3 °F 30.23 in East 6.8 mph 8.1 mph 74 % 0.00 in
00:30 30.7 °F 23.4 °F 30.23 in East 6.9 mph 10.4 mph 74 % 0.00 in
00:35 30.7 °F 23.4 °F 30.23 in East 5.7 mph 9.2 mph 74 % 0.00 in
00:40 30.7 °F 23.4 °F 30.23 in East 5.1 mph 9.2 mph 74 % 0.00 in
00:45 30.8 °F 23.5 °F 30.22 in East 5.5 mph 8.1 mph 74 % 0.00 in
00:50 30.8 °F 23.8 °F 30.22 in East 4.4 mph 7.0 mph 75 % 0.00 in
00:55 30.8 °F 23.8 °F 30.22 in East 3.2 mph 8.1 mph 75 % 0.00 in
01:00 30.8 °F 23.5 °F 30.23 in East 2.5 mph 5.0 mph 74 % 0.00 in
01:05 30.8 °F 23.5 °F 30.23 in East 3.7 mph 6.9 mph 74 % 0.00 in
01:10 30.8 °F 23.5 °F 30.23 in East 3.7 mph 5.8 mph 74 % 0.00 in
01:15 30.8 °F 23.5 °F 30.22 in East 5.4 mph 6.9 mph 74 % 0.00 in
01:20 30.8 °F 23.5 °F 30.22 in East 5.1 mph 7.0 mph 74 % 0.00 in
01:25 30.9 °F 23.6 °F 30.22 in East 5.6 mph 8.0 mph 74 % 0.00 in
01:30 31.0 °F 23.7 °F 30.21 in East 6.4 mph 10.4 mph 74 % 0.00 in
01:35 31.1 °F 23.8 °F 30.21 in East 5.2 mph 8.0 mph 74 % 0.00 in
01:40 31.1 °F 23.8 °F 30.20 in East 5.9 mph 9.2 mph 74 % 0.00 in
01:45 31.2 °F 24.2 °F 30.20 in East 6.1 mph 8.0 mph 75 % 0.00 in
01:50 31.3 °F 24.3 °F 30.20 in East 8.7 mph 11.5 mph 75 % 0.00 in
01:55 31.4 °F 24.4 °F 30.20 in East 9.0 mph 10.4 mph 75 % 0.00 in
02:00 31.4 °F 24.1 °F 30.20 in East 8.8 mph 11.5 mph 74 % 0.00 in
02:05 31.4 °F 24.4 °F 30.19 in East 11.1 mph 13.8 mph 75 % 0.00 in
02:10 31.4 °F 25.0 °F 30.19 in East 9.8 mph 13.8 mph 77 % 0.00 in
02:15 31.4 °F 25.0 °F 30.19 in ENE 8.6 mph 11.5 mph 77 % 0.00 in
02:20 31.4 °F 25.6 °F 30.17 in East 10.2 mph 11.5 mph 79 % 0.00 in
02:25 31.2 °F 25.7 °F 30.17 in East 11.0 mph 15.0 mph 80 % 0.00 in
02:30 30.8 °F 25.7 °F 30.17 in ESE 10.7 mph 13.8 mph 81 % 0.00 in
02:35 30.7 °F 25.9 °F 30.16 in East 9.9 mph 13.8 mph 82 % 0.00 in
02:40 30.5 °F 26.0 °F 30.16 in East 11.0 mph 13.0 mph 83 % 0.00 in
02:46 30.5 °F 26.5 °F 30.16 in East 12.2 mph 15.0 mph 85 % 0.00 in
02:51 30.4 °F 26.7 °F 30.15 in East 10.4 mph 13.0 mph 86 % 0.00 in
02:52 30.4 °F 26.7 °F 30.15 in East 10.9 mph 12.7 mph 86 % 0.00 in
02:57 30.3 °F 27.2 °F 30.13 in East 11.1 mph 11.5 mph 88 % 0.00 in
03:02 30.2 °F 27.3 °F 30.12 in ENE 10.8 mph 13.0 mph 89 % 0.00 in
03:07 30.1 °F 27.5 °F 30.12 in ENE 11.5 mph 15.0 mph 90 % 0.00 in
03:12 30.1 °F 27.8 °F 30.12 in ESE 11.4 mph 12.0 mph 91 % 0.00 in
03:17 30.1 °F 28.1 °F 30.11 in East 11.1 mph 14.0 mph 92 % 0.00 in
03:22 30.1 °F 28.1 °F 30.10 in ENE 12.2 mph 16.0 mph 92 % 0.00 in
03:27 30.1 °F 28.1 °F 30.10 in East 10.8 mph 17.3 mph 92 % 0.00 in
03:32 30.0 °F 28.0 °F 30.09 in East 11.5 mph 15.0 mph 92 % 0.00 in
03:37 30.0 °F 28.2 °F 30.09 in ENE 11.0 mph 16.1 mph 93 % 0.00 in
03:42 29.9 °F 28.1 °F 30.08 in East 13.7 mph 15.0 mph 93 % 0.00 in
03:47 29.9 °F 28.1 °F 30.07 in ENE 11.0 mph 17.3 mph 93 % 0.00 in
03:52 29.9 °F 28.1 °F 30.06 in East 12.9 mph 18.4 mph 93 % 0.00 in
03:57 29.9 °F 28.4 °F 30.05 in East 12.8 mph 14.0 mph 94 % 0.00 in
04:02 29.9 °F 28.4 °F 30.05 in East 13.5 mph 18.0 mph 94 % 0.00 in
04:07 30.0 °F 28.5 °F 30.05 in ENE 14.0 mph 19.6 mph 94 % 0.01 in
04:12 30.1 °F 28.6 °F 30.03 in East 13.3 mph 17.3 mph 94 % 0.01 in
04:17 30.3 °F 28.8 °F 30.03 in East 15.6 mph 25.3 mph 94 % 0.01 in
04:22 30.3 °F 28.8 °F 30.02 in East 12.7 mph 16.1 mph 94 % 0.01 in
04:27 30.4 °F 29.1 °F 30.01 in East 13.9 mph 17.3 mph 95 % 0.01 in
04:32 30.5 °F 29.2 °F 30.01 in ENE 14.0 mph 17.3 mph 95 % 0.01 in
04:37 30.4 °F 29.1 °F 30.00 in East 15.3 mph 18.4 mph 95 % 0.01 in
04:42 30.3 °F 29.0 °F 30.00 in East 14.3 mph 18.0 mph 95 % 0.01 in
04:47 30.4 °F 29.1 °F 29.99 in ENE 17.8 mph 24.2 mph 95 % 0.01 in
04:52 30.5 °F 29.2 °F 29.98 in East 14.6 mph 20.7 mph 95 % 0.02 in
04:57 30.6 °F 29.3 °F 29.98 in East 15.0 mph 21.9 mph 95 % 0.02 in
05:02 30.6 °F 29.3 °F 29.97 in East 18.8 mph 26.5 mph 95 % 0.02 in
05:07 30.7 °F 29.4 °F 29.97 in NE 16.1 mph 20.7 mph 95 % 0.01 in
05:13 31.0 °F 29.7 °F 29.97 in East 13.8 mph 16.1 mph 95 % 0.01 in
05:18 31.1 °F 29.8 °F 29.97 in East 15.8 mph 19.6 mph 95 % 0.01 in
05:23 31.2 °F 29.9 °F 29.96 in ENE 14.8 mph 20.7 mph 95 % 0.01 in
05:28 31.2 °F 29.9 °F 29.95 in ENE 16.5 mph 23.0 mph 95 % 0.01 in
05:33 31.2 °F 29.9 °F 29.95 in ENE 16.3 mph 24.2 mph 95 % 0.01 in
05:35 31.3 °F 30.3 °F 29.94 in ENE 15.3 mph 19.6 mph 96 % 0.01 in
05:40 31.4 °F 30.4 °F 29.93 in ENE 14.7 mph 21.0 mph 96 % 0.02 in
05:41 31.5 °F 30.5 °F 29.93 in ENE 16.4 mph 20.0 mph 96 % 0.02 in
05:46 31.6 °F 30.6 °F 29.93 in ENE 15.4 mph 25.3 mph 96 % 0.02 in
05:51 31.7 °F 30.7 °F 29.93 in East 20.7 mph 24.2 mph 96 % 0.01 in
05:56 31.7 °F 30.7 °F 29.92 in NE 14.3 mph 20.7 mph 96 % 0.01 in
06:01 31.7 °F 30.7 °F 29.92 in ENE 19.4 mph 27.6 mph 96 % 0.01 in
06:06 31.6 °F 30.6 °F 29.91 in East 17.0 mph 17.3 mph 96 % 0.01 in
06:11 31.5 °F 30.5 °F 29.90 in East 19.0 mph 31.1 mph 96 % 0.02 in
06:16 31.6 °F 30.6 °F 29.90 in ENE 16.8 mph 24.2 mph 96 % 0.02 in
06:21 31.6 °F 30.6 °F 29.89 in ENE 17.3 mph 24.2 mph 96 % 0.02 in
06:26 31.5 °F 30.5 °F 29.88 in ENE 18.7 mph 27.0 mph 96 % 0.02 in
06:31 31.5 °F 30.5 °F 29.87 in East 20.2 mph 26.5 mph 96 % 0.02 in
06:36 31.5 °F 30.5 °F 29.87 in ENE 17.1 mph 24.2 mph 96 % 0.03 in
06:41 31.5 °F 30.5 °F 29.86 in ENE 20.9 mph 27.6 mph 96 % 0.02 in
06:46 31.5 °F 30.5 °F 29.85 in ENE 18.8 mph 22.0 mph 96 % 0.02 in
06:51 31.4 °F 30.4 °F 29.84 in ENE 21.7 mph 30.0 mph 96 % 0.02 in
06:56 31.4 °F 30.4 °F 29.84 in NE 19.8 mph 26.5 mph 96 % 0.02 in
07:02 31.3 °F 30.3 °F 29.83 in East 21.1 mph 26.5 mph 96 % 0.02 in
07:07 31.3 °F 30.3 °F 29.83 in ENE 19.1 mph 26.5 mph 96 % 0.03 in
07:12 31.1 °F 30.1 °F 29.82 in ENE 21.4 mph 28.8 mph 96 % 0.02 in
07:17 31.1 °F 30.1 °F 29.81 in East 21.8 mph 28.0 mph 96 % 0.02 in
07:22 31.1 °F 30.1 °F 29.82 in ENE 22.2 mph 27.6 mph 96 % 0.02 in
07:27 31.1 °F 30.1 °F 29.81 in ENE 21.0 mph 27.6 mph 96 % 0.03 in
07:32 31.2 °F 30.2 °F 29.80 in NE 19.2 mph 26.5 mph 96 % 0.03 in
07:37 31.2 °F 30.2 °F 29.80 in East 18.6 mph 26.5 mph 96 % 0.02 in
07:42 31.4 °F 30.6 °F 29.80 in ENE 18.1 mph 26.5 mph 97 % 0.03 in
07:47 31.4 °F 30.6 °F 29.80 in ENE 21.6 mph 28.8 mph 97 % 0.04 in
07:48 31.4 °F 30.6 °F 29.79 in ENE 19.2 mph 28.8 mph 97 % 0.04 in
07:53 31.4 °F 30.6 °F 29.79 in NE 23.2 mph 34.5 mph 97 % 0.05 in
07:58 31.5 °F 30.7 °F 29.78 in ENE 22.3 mph 29.9 mph 97 % 0.06 in
08:03 31.5 °F 30.7 °F 29.77 in NE 19.3 mph 28.8 mph 97 % 0.07 in
08:08 31.6 °F 30.8 °F 29.77 in East 18.9 mph 29.9 mph 97 % 0.08 in
08:13 31.6 °F 30.8 °F 29.77 in ENE 19.5 mph 26.5 mph 97 % 0.09 in
08:18 31.5 °F 30.7 °F 29.77 in East 23.6 mph 28.8 mph 97 % 0.10 in
08:20 31.5 °F 30.7 °F 29.76 in NE 21.4 mph 31.1 mph 97 % 0.10 in
08:25 31.6 °F 30.8 °F 29.76 in East 19.7 mph 25.3 mph 97 % 0.10 in
08:30 31.5 °F 30.7 °F 29.76 in ENE 17.7 mph 26.5 mph 97 % 0.10 in
08:35 31.5 °F 30.7 °F 29.75 in ENE 17.4 mph 28.8 mph 97 % 0.11 in
08:40 31.5 °F 30.7 °F 29.74 in ENE 21.1 mph 28.8 mph 97 % 0.11 in
08:45 31.5 °F 30.7 °F 29.73 in ENE 20.8 mph 26.5 mph 97 % 0.10 in
08:50 31.5 °F 30.7 °F 29.72 in East 20.8 mph 26.5 mph 97 % 0.10 in
08:55 31.5 °F 30.7 °F 29.71 in East 22.3 mph 28.8 mph 97 % 0.10 in
09:00 31.5 °F 30.7 °F 29.70 in ENE 24.5 mph 31.1 mph 97 % 0.09 in
09:05 31.5 °F 30.7 °F 29.70 in ENE 19.1 mph 25.3 mph 97 % 0.09 in
09:10 31.5 °F 30.7 °F 29.69 in ENE 22.2 mph 35.7 mph 97 % 0.09 in
09:15 31.5 °F 30.7 °F 29.68 in East 21.9 mph 29.0 mph 97 % 0.08 in
09:20 31.5 °F 30.7 °F 29.67 in East 25.5 mph 34.5 mph 97 % 0.08 in
09:25 31.5 °F 30.7 °F 29.66 in ENE 22.0 mph 33.4 mph 97 % 0.08 in
09:30 31.5 °F 30.7 °F 29.64 in ENE 22.4 mph 31.1 mph 97 % 0.09 in
09:35 31.6 °F 30.8 °F 29.63 in ENE 23.5 mph 27.6 mph 97 % 0.09 in
09:40 31.6 °F 30.8 °F 29.62 in ENE 20.3 mph 27.0 mph 97 % 0.08 in
09:45 31.7 °F 30.9 °F 29.60 in ENE 22.0 mph 31.1 mph 97 % 0.09 in
09:50 31.7 °F 30.9 °F 29.59 in ENE 22.8 mph 39.1 mph 97 % 0.09 in
09:55 31.8 °F 31.0 °F 29.58 in ENE 21.6 mph 31.1 mph 97 % 0.09 in
10:00 31.9 °F 31.1 °F 29.56 in East 20.4 mph 33.0 mph 97 % 0.10 in
10:06 32.0 °F 31.2 °F 29.52 in East 23.9 mph 31.1 mph 97 % 0.10 in
10:11 32.0 °F 31.2 °F 29.50 in NE 20.6 mph 35.0 mph 97 % 0.09 in
10:16 32.1 °F 31.3 °F 29.50 in ENE 18.1 mph 27.6 mph 97 % 0.10 in
10:21 32.3 °F 31.5 °F 29.48 in ENE 20.5 mph 29.9 mph 97 % 0.10 in
10:26 32.4 °F 31.6 °F 29.46 in East 21.5 mph 38.0 mph 97 % 0.10 in
10:31 32.5 °F 31.7 °F 29.45 in ENE 28.0 mph 34.0 mph 97 % 0.10 in
10:36 32.6 °F 31.8 °F 29.44 in East 20.3 mph 34.5 mph 97 % 0.10 in
10:41 32.8 °F 32.0 °F 29.42 in ENE 23.0 mph 31.1 mph 97 % 0.10 in
10:46 32.8 °F 32.0 °F 29.42 in ENE 24.5 mph 29.9 mph 97 % 0.10 in
10:51 32.9 °F 32.1 °F 29.40 in ENE 23.6 mph 30.0 mph 97 % 0.10 in
10:56 33.0 °F 32.2 °F 29.40 in ENE 22.8 mph 29.9 mph 97 % 0.10 in
11:02 33.0 °F 32.2 °F 29.39 in ENE 20.4 mph 33.4 mph 97 % 0.10 in
11:07 33.2 °F 32.4 °F 29.38 in ENE 21.4 mph 31.0 mph 97 % 0.10 in
11:12 33.3 °F 32.5 °F 29.36 in ENE 20.5 mph 28.8 mph 97 % 0.09 in
11:17 33.5 °F 32.7 °F 29.36 in ENE 24.4 mph 29.0 mph 97 % 0.10 in
11:22 33.7 °F 32.9 °F 29.36 in East 24.5 mph 31.1 mph 97 % 0.10 in
11:27 33.8 °F 33.0 °F 29.36 in NE 20.9 mph 28.8 mph 97 % 0.09 in
11:32 33.9 °F 33.1 °F 29.34 in ENE 23.9 mph 33.4 mph 97 % 0.08 in
11:34 33.9 °F 33.1 °F 29.34 in East 22.3 mph 34.5 mph 97 % 0.07 in
11:39 34.1 °F 33.3 °F 29.35 in East 21.3 mph 28.0 mph 97 % 0.08 in
11:44 34.1 °F 33.3 °F 29.33 in East 18.6 mph 27.0 mph 97 % 0.07 in
11:49 34.3 °F 33.5 °F 29.32 in ENE 19.5 mph 27.0 mph 97 % 0.07 in
11:54 34.2 °F 33.4 °F 29.31 in ENE 17.7 mph 24.2 mph 97 % 0.06 in
11:59 34.4 °F 33.6 °F 29.31 in ENE 19.1 mph 26.5 mph 97 % 0.05 in
12:04 34.4 °F 33.6 °F 29.31 in NE 15.4 mph 25.3 mph 97 % 0.06 in
12:09 34.4 °F 33.6 °F 29.30 in NNE 18.3 mph 26.5 mph 97 % 0.05 in
12:14 34.4 °F 33.6 °F 29.29 in East 14.0 mph 18.4 mph 97 % 0.04 in
12:19 34.4 °F 33.6 °F 29.28 in ENE 14.1 mph 19.6 mph 97 % 0.05 in
12:24 34.5 °F 33.7 °F 29.27 in NE 13.4 mph 19.6 mph 97 % 0.04 in
12:29 34.6 °F 33.8 °F 29.26 in East 14.3 mph 21.9 mph 97 % 0.05 in
12:34 34.5 °F 33.7 °F 29.25 in NE 11.4 mph 19.6 mph 97 % 0.05 in
12:39 34.6 °F 33.8 °F 29.23 in NE 14.4 mph 20.7 mph 97 % 0.05 in
12:44 34.6 °F 33.8 °F 29.22 in ENE 9.8 mph 15.0 mph 97 % 0.05 in
12:49 34.5 °F 33.7 °F 29.22 in ENE 12.0 mph 23.0 mph 97 % 0.04 in
12:54 34.5 °F 33.7 °F 29.21 in NE 11.1 mph 17.3 mph 97 % 0.05 in
12:59 34.5 °F 33.7 °F 29.21 in ENE 8.6 mph 18.4 mph 97 % 0.05 in
13:04 34.7 °F 33.9 °F 29.19 in NE 9.2 mph 16.1 mph 97 % 0.04 in
13:09 34.8 °F 34.0 °F 29.17 in NE 13.4 mph 25.3 mph 97 % 0.05 in
13:14 34.8 °F 34.3 °F 29.13 in NE 11.9 mph 18.4 mph 98 % 0.05 in
13:19 34.7 °F 34.2 °F 29.12 in NNE 11.0 mph 16.1 mph 98 % 0.04 in
13:24 34.7 °F 33.9 °F 29.12 in NNE 12.6 mph 26.5 mph 97 % 0.05 in
13:29 34.7 °F 34.2 °F 29.12 in North 9.2 mph 18.4 mph 98 % 0.04 in
13:34 34.7 °F 34.2 °F 29.12 in NE 12.4 mph 19.6 mph 98 % 0.04 in
13:39 34.7 °F 34.2 °F 29.11 in NE 13.6 mph 19.6 mph 98 % 0.04 in
13:44 34.7 °F 33.9 °F 29.10 in NNE 14.4 mph 20.7 mph 97 % 0.04 in
13:49 34.8 °F 34.3 °F 29.09 in NNE 17.9 mph 24.2 mph 98 % 0.04 in
13:54 34.8 °F 34.3 °F 29.08 in NNE 16.0 mph 20.7 mph 98 % 0.03 in
13:59 34.9 °F 34.4 °F 29.07 in NNE 17.2 mph 24.0 mph 98 % 0.04 in
14:04 34.9 °F 34.4 °F 29.09 in North 13.1 mph 21.9 mph 98 % 0.04 in
14:09 35.0 °F 34.5 °F 29.05 in NNE 14.1 mph 19.6 mph 98 % 0.03 in
14:14 35.1 °F 34.6 °F 29.06 in NNE 16.5 mph 21.9 mph 98 % 0.03 in
14:19 35.1 °F 34.3 °F 29.04 in NE 15.8 mph 26.5 mph 97 % 0.03 in
14:24 35.1 °F 34.3 °F 29.05 in NE 16.1 mph 23.0 mph 97 % 0.03 in
14:29 35.1 °F 34.3 °F 29.05 in NNW 15.0 mph 24.0 mph 97 % 0.03 in
14:34 35.0 °F 34.2 °F 29.03 in NNE 16.9 mph 26.5 mph 97 % 0.03 in
14:39 35.0 °F 34.5 °F 29.02 in NNE 15.4 mph 24.2 mph 98 % 0.02 in
14:44 35.0 °F 34.5 °F 29.00 in NNE 16.3 mph 23.0 mph 98 % 0.02 in
14:49 35.0 °F 34.5 °F 29.00 in NNE 15.5 mph 19.6 mph 98 % 0.03 in
14:55 35.0 °F 34.5 °F 28.99 in North 15.6 mph 21.0 mph 98 % 0.03 in
15:00 34.9 °F 34.4 °F 29.01 in North 9.2 mph 15.0 mph 98 % 0.02 in
15:05 34.9 °F 34.4 °F 29.01 in NNE 11.1 mph 18.4 mph 98 % 0.02 in
15:10 34.8 °F 34.3 °F 29.01 in NNE 11.4 mph 17.0 mph 98 % 0.02 in
15:15 34.7 °F 34.2 °F 29.01 in NNE 9.3 mph 17.3 mph 98 % 0.03 in
15:20 34.7 °F 34.2 °F 29.00 in North 8.2 mph 16.0 mph 98 % 0.02 in
15:25 34.6 °F 34.1 °F 29.00 in NNW 8.8 mph 18.0 mph 98 % 0.02 in
15:30 34.4 °F 33.6 °F 29.00 in NNW 8.1 mph 17.3 mph 97 % 0.02 in
15:35 34.3 °F 33.5 °F 28.99 in North 9.6 mph 18.4 mph 97 % 0.02 in
15:40 34.1 °F 33.3 °F 28.98 in NNE 12.2 mph 18.4 mph 97 % 0.03 in
15:45 33.9 °F 33.1 °F 28.99 in North 8.1 mph 15.0 mph 97 % 0.03 in
15:50 33.8 °F 33.0 °F 29.01 in NNW 7.4 mph 20.7 mph 97 % 0.02 in
15:55 33.7 °F 32.9 °F 29.02 in NNE 8.5 mph 13.8 mph 97 % 0.02 in
16:00 33.6 °F 32.8 °F 29.04 in NNW 7.0 mph 16.1 mph 97 % 0.02 in
16:05 33.5 °F 32.7 °F 29.05 in WNW 8.4 mph 19.6 mph 97 % 0.03 in
16:10 33.3 °F 32.5 °F 29.05 in NW 7.6 mph 20.7 mph 97 % 0.03 in
16:16 33.2 °F 32.4 °F 29.05 in NW 9.5 mph 13.8 mph 97 % 0.02 in
16:21 33.1 °F 32.3 °F 29.05 in NNW 7.4 mph 19.6 mph 97 % 0.02 in
16:26 33.0 °F 32.2 °F 29.05 in NW 8.6 mph 15.0 mph 97 % 0.02 in
16:30 32.9 °F 32.1 °F 29.05 in WNW 8.0 mph 15.0 mph 97 % 0.03 in
16:36 32.5 °F 31.7 °F 29.05 in WNW 6.6 mph 15.0 mph 97 % 0.03 in
16:40 31.9 °F 31.1 °F 29.06 in NW 9.0 mph 21.9 mph 97 % 0.02 in
16:46 31.4 °F 30.6 °F 29.06 in NW 10.1 mph 25.3 mph 97 % 0.02 in
16:51 31.1 °F 30.3 °F 29.07 in NNW 8.6 mph 18.4 mph 97 % 0.02 in
16:56 30.7 °F 30.0 °F 29.08 in NW 11.0 mph 18.4 mph 97 % 0.02 in
17:01 30.5 °F 29.8 °F 29.08 in West 9.7 mph 18.0 mph 97 % 0.02 in
17:06 30.2 °F 29.5 °F 29.09 in WNW 8.0 mph 16.1 mph 97 % 0.02 in
17:11 29.9 °F 29.2 °F 29.10 in West 5.8 mph 16.1 mph 97 % 0.02 in
17:16 29.7 °F 29.0 °F 29.11 in WNW 6.8 mph 14.0 mph 97 % 0.02 in
17:21 29.6 °F 28.9 °F 29.12 in NW 5.3 mph 16.1 mph 97 % 0.02 in
17:26 29.4 °F 28.4 °F 29.12 in WNW 10.6 mph 20.7 mph 96 % 0.02 in
17:31 29.3 °F 28.3 °F 29.12 in WNW 9.0 mph 17.3 mph 96 % 0.01 in
17:36 29.2 °F 28.2 °F 29.12 in NW 10.5 mph 19.6 mph 96 % 0.01 in
17:41 29.1 °F 28.1 °F 29.13 in NNW 9.0 mph 21.9 mph 96 % 0.01 in
17:46 29.0 °F 28.0 °F 29.14 in NNW 10.2 mph 18.4 mph 96 % 0.01 in
17:51 28.9 °F 27.9 °F 29.13 in WNW 15.5 mph 26.5 mph 96 % 0.01 in
17:56 28.8 °F 27.5 °F 29.14 in WNW 9.4 mph 25.3 mph 95 % 0.01 in
18:01 28.7 °F 27.4 °F 29.16 in WNW 9.0 mph 19.6 mph 95 % 0.02 in
18:06 28.7 °F 27.4 °F 29.14 in NNW 12.0 mph 19.6 mph 95 % 0.01 in
18:11 28.6 °F 27.4 °F 29.15 in West 10.0 mph 20.7 mph 95 % 0.01 in
18:16 28.6 °F 27.4 °F 29.16 in NW 9.2 mph 13.8 mph 95 % 0.01 in
18:21 28.5 °F 27.3 °F 29.17 in NW 8.6 mph 17.3 mph 95 % 0.01 in
18:26 28.5 °F 27.3 °F 29.18 in WNW 7.5 mph 15.0 mph 95 % 0.01 in
18:31 28.4 °F 27.2 °F 29.19 in West 10.9 mph 17.3 mph 95 % 0.01 in
18:36 28.5 °F 27.3 °F 29.19 in NNW 11.3 mph 19.6 mph 95 % 0.01 in
18:41 28.4 °F 26.9 °F 29.20 in NNW 10.8 mph 23.0 mph 94 % 0.01 in
18:46 28.5 °F 27.0 °F 29.21 in NW 9.5 mph 19.6 mph 94 % 0.01 in
18:51 28.5 °F 27.0 °F 29.22 in NW 10.6 mph 16.1 mph 94 % 0.01 in
18:56 28.6 °F 27.1 °F 29.22 in West 9.8 mph 19.6 mph 94 % 0.01 in
19:01 28.7 °F 26.9 °F 29.23 in WNW 10.4 mph 15.0 mph 93 % 0.00 in
19:06 28.8 °F 27.0 °F 29.23 in WNW 10.6 mph 24.2 mph 93 % 0.00 in
19:11 28.9 °F 27.1 °F 29.23 in West 6.9 mph 22.0 mph 93 % 0.00 in
19:16 28.9 °F 26.9 °F 29.25 in WNW 10.3 mph 17.3 mph 92 % 0.01 in
19:21 29.0 °F 27.0 °F 29.25 in NW 10.7 mph 20.7 mph 92 % 0.01 in
19:26 29.0 °F 26.7 °F 29.26 in WNW 9.3 mph 18.4 mph 91 % 0.01 in
19:31 29.1 °F 26.8 °F 29.27 in WNW 10.8 mph 23.0 mph 91 % 0.01 in
19:36 29.2 °F 26.6 °F 29.26 in WNW 8.7 mph 19.6 mph 90 % 0.01 in
19:37 29.3 °F 26.7 °F 29.26 in NNW 7.8 mph 12.7 mph 90 % 0.01 in
19:42 29.4 °F 26.8 °F 29.27 in NW 10.0 mph 19.6 mph 90 % 0.01 in
19:47 29.5 °F 26.9 °F 29.27 in WNW 9.1 mph 21.9 mph 90 % 0.01 in
19:52 29.6 °F 26.8 °F 29.27 in WNW 11.9 mph 23.0 mph 89 % 0.01 in
19:57 29.7 °F 26.9 °F 29.27 in WNW 10.9 mph 19.0 mph 89 % 0.01 in
20:02 29.9 °F 27.1 °F 29.27 in WNW 6.9 mph 11.5 mph 89 % 0.01 in
20:07 30.0 °F 26.9 °F 29.28 in NNW 6.0 mph 21.9 mph 88 % 0.01 in
20:12 30.1 °F 27.0 °F 29.28 in WNW 9.2 mph 18.0 mph 88 % 0.01 in
20:17 30.2 °F 27.1 °F 29.29 in West 10.7 mph 13.0 mph 88 % 0.00 in
20:22 30.3 °F 27.2 °F 29.29 in West 7.0 mph 16.1 mph 88 % 0.00 in
20:27 30.4 °F 27.0 °F 29.29 in NNW 11.4 mph 17.3 mph 87 % 0.00 in
20:32 30.5 °F 27.1 °F 29.30 in WNW 11.1 mph 21.9 mph 87 % 0.00 in
20:37 30.5 °F 27.1 °F 29.30 in WNW 7.7 mph 20.7 mph 87 % 0.00 in
20:42 30.6 °F 27.2 °F 29.31 in West 9.7 mph 17.3 mph 87 % 0.00 in
20:48 30.6 °F 27.2 °F 29.32 in West 4.5 mph 11.5 mph 87 % 0.00 in
20:53 30.6 °F 27.5 °F 29.32 in WNW 7.7 mph 16.0 mph 88 % 0.00 in
20:58 30.6 °F 27.5 °F 29.32 in WNW 7.2 mph 20.7 mph 88 % 0.00 in
21:03 30.6 °F 27.5 °F 29.32 in West 7.0 mph 21.0 mph 88 % 0.00 in
21:08 30.5 °F 27.6 °F 29.32 in NW 8.3 mph 10.4 mph 89 % 0.00 in
21:13 30.5 °F 27.6 °F 29.32 in NW 10.2 mph 20.0 mph 89 % 0.00 in
21:18 30.4 °F 27.0 °F 29.33 in West 5.0 mph 17.0 mph 87 % 0.00 in
21:23 30.4 °F 26.7 °F 29.34 in West 9.0 mph 26.0 mph 86 % 0.00 in
21:28 30.3 °F 26.3 °F 29.34 in West 12.0 mph 23.0 mph 85 % 0.00 in
21:33 30.2 °F 26.2 °F 29.35 in WNW 9.0 mph 17.0 mph 85 % 0.00 in
21:38 30.2 °F 26.2 °F 29.35 in West 5.0 mph 13.0 mph 85 % 0.00 in
21:43 30.1 °F 25.8 °F 29.36 in West 8.0 mph 15.0 mph 84 % 0.00 in
21:48 30.0 °F 25.5 °F 29.36 in West 7.4 mph 11.5 mph 83 % 0.00 in
21:53 29.8 °F 25.0 °F 29.37 in West 8.8 mph 19.6 mph 82 % 0.00 in
21:58 29.6 °F 24.5 °F 29.37 in SSW 10.2 mph 13.8 mph 81 % 0.00 in
22:03 29.3 °F 24.2 °F 29.38 in NW 7.2 mph 14.0 mph 81 % 0.00 in
22:08 28.9 °F 23.5 °F 29.38 in WSW 13.9 mph 18.4 mph 80 % 0.00 in
22:13 28.4 °F 22.4 °F 29.39 in West 12.0 mph 22.0 mph 78 % 0.00 in
22:18 27.9 °F 21.9 °F 29.39 in West 12.0 mph 23.0 mph 78 % 0.00 in
22:23 27.6 °F 21.9 °F 29.39 in West 7.0 mph 23.0 mph 79 % 0.00 in
22:28 27.2 °F 21.3 °F 29.38 in West 10.0 mph 20.0 mph 78 % 0.00 in
22:33 27.0 °F 20.7 °F 29.38 in West 13.0 mph 25.0 mph 77 % 0.00 in
22:38 26.7 °F 20.5 °F 29.39 in West 9.0 mph 22.0 mph 77 % 0.00 in
22:43 26.5 °F 20.3 °F 29.39 in WNW 8.0 mph 23.0 mph 77 % 0.00 in
22:48 26.3 °F 20.1 °F 29.39 in West 7.0 mph 20.0 mph 77 % 0.00 in
22:53 26.1 °F 19.6 °F 29.40 in WSW 13.0 mph 23.0 mph 76 % 0.00 in
22:58 25.8 °F 19.6 °F 29.40 in WNW 8.4 mph 21.0 mph 77 % 0.00 in
23:03 25.7 °F 19.5 °F 29.40 in West 5.6 mph 10.4 mph 77 % 0.00 in
23:08 25.5 °F 19.3 °F 29.40 in West 11.6 mph 23.0 mph 77 % 0.00 in
23:13 25.3 °F 19.1 °F 29.41 in West 8.8 mph 13.8 mph 77 % 0.00 in
23:18 25.1 °F 18.9 °F 29.41 in West 11.3 mph 20.0 mph 77 % 0.00 in
23:23 25.0 °F 18.5 °F 29.42 in WSW 12.5 mph 19.6 mph 76 % 0.00 in
23:28 24.8 °F 18.0 °F 29.43 in SW 12.4 mph 18.4 mph 75 % 0.00 in
23:33 24.7 °F 18.2 °F 29.43 in WSW 7.1 mph 13.8 mph 76 % 0.00 in
23:38 24.4 °F 17.6 °F 29.43 in WSW 10.6 mph 22.0 mph 75 % 0.00 in
23:43 24.3 °F 17.5 °F 29.44 in WNW 8.2 mph 19.6 mph 75 % 0.00 in
23:48 24.1 °F 17.3 °F 29.44 in West 7.8 mph 13.8 mph 75 % 0.00 in
23:53 24.0 °F 17.2 °F 29.44 in NW 7.4 mph 17.3 mph 75 % 0.00 in
23:58 23.9 °F 17.1 °F 29.43 in WSW 9.8 mph 19.6 mph 75 % 0.00 in
Crab Meadow Weather
Compliments of Weather Underground - 3 mb

Script developed by  Jim McMurry - jmcmurry@mwt.net Adapted for the template by  Wim van der Kuil - Leuven-Template.eu

Lightning: Lightning is equivalent to the electric power of 100 million light bulbs in your face.